createdAt,value
2023-03-26T00:01:33.580Z,0.90
2023-03-26T00:04:01.282Z,0.90
2023-03-26T00:06:39.164Z,0.90
2023-03-26T00:09:08.591Z,0.90
2023-03-26T00:11:35.889Z,0.90
2023-03-26T00:14:03.705Z,1.00
2023-03-26T00:16:32.234Z,0.90
2023-03-26T00:19:00.177Z,0.90
2023-03-26T00:21:29.451Z,0.90
2023-03-26T00:23:59.741Z,0.90
2023-03-26T00:26:29.613Z,0.90
2023-03-26T00:28:57.611Z,0.90
2023-03-26T00:31:24.589Z,0.90
2023-03-26T00:33:55.954Z,0.90
2023-03-26T00:36:25.758Z,1.00
2023-03-26T00:38:54.010Z,1.00
2023-03-26T00:41:25.510Z,1.00
2023-03-26T00:43:57.969Z,0.90
2023-03-26T00:46:26.726Z,0.90
2023-03-26T00:48:54.175Z,0.90
2023-03-26T00:51:21.867Z,0.90
2023-03-26T00:53:50.611Z,0.90
2023-03-26T00:56:18.284Z,0.90
2023-03-26T00:58:47.625Z,0.90
2023-03-26T01:01:20.396Z,0.90
2023-03-26T01:04:04.867Z,0.90
2023-03-26T01:06:37.819Z,0.90
2023-03-26T01:09:20.631Z,0.90
2023-03-26T01:11:48.858Z,0.80
2023-03-26T01:14:26.949Z,0.90
2023-03-26T01:17:00.369Z,0.90
2023-03-26T01:19:38.274Z,0.90
2023-03-26T01:22:11.276Z,0.90
2023-03-26T01:24:39.596Z,0.90
2023-03-26T01:27:25.789Z,1.00
2023-03-26T01:30:11.427Z,0.90
2023-03-26T01:33:07.215Z,1.00
2023-03-26T01:35:52.581Z,0.90
2023-03-26T01:38:49.007Z,0.90
2023-03-26T01:41:57.852Z,0.90
2023-03-26T01:44:32.205Z,0.90
2023-03-26T01:47:00.759Z,0.90
2023-03-26T01:49:29.688Z,0.90
2023-03-26T01:51:58.076Z,0.90
2023-03-26T01:54:29.740Z,0.90
2023-03-26T01:57:17.857Z,0.90
2023-03-26T02:00:06.783Z,0.90
2023-03-26T02:02:45.514Z,0.90
2023-03-26T02:05:24.485Z,0.90
2023-03-26T02:08:01.802Z,0.90
2023-03-26T02:10:30.784Z,0.90
2023-03-26T02:12:59.115Z,1.00
2023-03-26T02:15:26.029Z,0.90
2023-03-26T02:17:54.148Z,0.90
2023-03-26T02:20:22.112Z,0.90
2023-03-26T02:22:49.111Z,0.90
2023-03-26T02:25:21.303Z,0.90
2023-03-26T02:27:50.149Z,0.80
2023-03-26T02:30:25.872Z,0.80
2023-03-26T02:32:54.235Z,0.90
2023-03-26T02:35:22.566Z,0.90
2023-03-26T02:37:51.007Z,0.90
2023-03-26T02:40:22.485Z,0.90
2023-03-26T02:42:49.926Z,0.90
2023-03-26T02:45:16.978Z,0.90
2023-03-26T02:47:46.041Z,0.90
2023-03-26T02:50:13.063Z,1.00
2023-03-26T02:52:40.136Z,0.90
2023-03-26T02:55:07.508Z,0.90
2023-03-26T02:57:34.674Z,0.90
2023-03-26T03:00:03.635Z,0.90
2023-03-26T03:02:30.795Z,0.90
2023-03-26T03:05:01.588Z,1.00
2023-03-26T03:07:29.170Z,0.90
2023-03-26T03:09:56.096Z,0.90
2023-03-26T03:12:23.081Z,1.00
2023-03-26T03:14:49.974Z,1.00
2023-03-26T03:17:16.960Z,1.00
2023-03-26T03:19:43.876Z,0.90
2023-03-26T03:22:10.812Z,0.90
2023-03-26T03:24:38.702Z,0.90
2023-03-26T03:27:05.748Z,0.90
2023-03-26T03:29:32.738Z,0.90
2023-03-26T03:32:00.256Z,0.90
2023-03-26T03:34:27.693Z,0.90
2023-03-26T03:36:54.611Z,0.90
2023-03-26T03:39:21.748Z,1.00
2023-03-26T03:41:49.434Z,0.90
2023-03-26T03:44:16.901Z,0.90
2023-03-26T03:46:43.874Z,1.00
2023-03-26T03:49:10.754Z,0.90
2023-03-26T03:51:37.724Z,1.00
2023-03-26T03:54:04.978Z,0.90
2023-03-26T03:56:31.947Z,0.90
2023-03-26T03:58:59.606Z,0.90
2023-03-26T04:01:26.599Z,0.90
2023-03-26T04:03:53.644Z,0.90
2023-03-26T04:06:20.563Z,0.90
2023-03-26T04:08:47.492Z,0.90
2023-03-26T04:11:14.514Z,0.90
2023-03-26T04:13:41.484Z,0.90
2023-03-26T04:16:09.306Z,0.90
2023-03-26T04:18:37.604Z,1.00
2023-03-26T04:21:05.350Z,1.00
2023-03-26T04:23:32.395Z,1.00
2023-03-26T04:26:04.261Z,1.00
2023-03-26T04:28:57.351Z,1.00
2023-03-26T04:31:29.200Z,1.00
2023-03-26T04:34:01.548Z,1.00
2023-03-26T04:36:32.153Z,1.00
2023-03-26T04:39:03.213Z,1.00
2023-03-26T04:41:30.262Z,1.00
2023-03-26T04:43:57.246Z,1.00
2023-03-26T04:46:24.299Z,1.00
2023-03-26T04:48:52.270Z,1.00
2023-03-26T04:51:24.264Z,1.00
2023-03-26T04:53:59.225Z,1.00
2023-03-26T04:57:11.831Z,1.00
2023-03-26T04:59:41.478Z,1.10
2023-03-26T05:02:09.637Z,1.10
2023-03-26T05:04:39.591Z,1.10
2023-03-26T05:07:07.468Z,1.10
2023-03-26T05:09:34.410Z,1.10
2023-03-26T05:12:01.478Z,1.10
2023-03-26T05:14:28.385Z,1.10
2023-03-26T05:16:55.345Z,1.20
2023-03-26T05:19:22.429Z,1.20
2023-03-26T05:21:49.445Z,1.20
2023-03-26T05:24:16.535Z,1.10
2023-03-26T05:26:43.436Z,1.20
2023-03-26T05:29:10.706Z,1.10
2023-03-26T05:31:37.965Z,1.20
2023-03-26T05:34:06.767Z,1.20
2023-03-26T05:36:33.660Z,1.20
2023-03-26T05:39:00.572Z,1.20
2023-03-26T05:41:27.439Z,1.20
2023-03-26T05:43:54.325Z,1.20
2023-03-26T05:46:23.169Z,1.20
2023-03-26T05:48:51.876Z,1.30
2023-03-26T05:51:18.807Z,1.30
2023-03-26T05:53:45.763Z,1.30
2023-03-26T05:56:12.729Z,1.30
2023-03-26T05:58:39.692Z,1.30
2023-03-26T06:01:09.456Z,1.30
2023-03-26T06:03:38.910Z,1.30
2023-03-26T06:06:15.569Z,1.30
2023-03-26T06:09:01.069Z,1.40
2023-03-26T06:11:30.347Z,1.40
2023-03-26T06:13:57.319Z,1.40
2023-03-26T06:16:26.375Z,1.40
2023-03-26T06:18:56.453Z,1.40
2023-03-26T06:21:25.695Z,1.40
2023-03-26T06:23:53.042Z,1.40
2023-03-26T06:26:20.064Z,1.30
2023-03-26T06:28:46.994Z,1.40
2023-03-26T06:31:14.131Z,1.40
2023-03-26T06:33:41.079Z,1.40
2023-03-26T06:36:08.391Z,1.40
2023-03-26T06:38:35.476Z,1.40
2023-03-26T06:41:06.305Z,1.50
2023-03-26T06:43:34.040Z,1.50
2023-03-26T06:46:04.365Z,1.50
2023-03-26T06:48:31.844Z,1.40
2023-03-26T06:50:59.289Z,1.50
2023-03-26T06:53:26.284Z,1.50
2023-03-26T06:55:54.552Z,1.50
2023-03-26T06:58:22.524Z,1.50
2023-03-26T07:00:53.430Z,1.50
2023-03-26T07:03:20.893Z,1.60
2023-03-26T07:05:48.012Z,1.50
2023-03-26T07:08:15.477Z,1.50
2023-03-26T07:10:42.510Z,1.60
2023-03-26T07:13:09.545Z,1.60
2023-03-26T07:15:36.458Z,1.60
2023-03-26T07:18:03.430Z,1.60
2023-03-26T07:20:30.802Z,1.60
2023-03-26T07:22:58.160Z,1.60
2023-03-26T07:25:25.560Z,1.70
2023-03-26T07:28:13.083Z,1.70
2023-03-26T07:30:39.957Z,1.70
2023-03-26T07:33:16.160Z,1.70
2023-03-26T07:35:58.281Z,1.80
2023-03-26T07:38:28.231Z,1.80
2023-03-26T07:41:04.830Z,1.80
2023-03-26T07:43:43.683Z,1.80
2023-03-26T07:46:12.875Z,1.70
2023-03-26T07:48:42.354Z,1.80
2023-03-26T07:51:10.464Z,1.70
2023-03-26T07:53:37.564Z,1.70
2023-03-26T07:56:16.993Z,1.80
2023-03-26T07:58:46.828Z,1.70
2023-03-26T08:01:18.986Z,1.80
2023-03-26T08:04:25.273Z,1.80
2023-03-26T08:07:15.732Z,1.80
2023-03-26T08:10:08.395Z,1.80
2023-03-26T08:13:02.983Z,1.80
2023-03-26T08:15:37.914Z,1.90
2023-03-26T08:18:35.197Z,1.90
2023-03-26T08:21:14.160Z,1.80
2023-03-26T08:24:06.360Z,1.80
2023-03-26T08:26:45.783Z,1.80
2023-03-26T08:29:39.210Z,1.70
2023-03-26T08:32:13.989Z,1.70
2023-03-26T08:34:41.096Z,1.80
2023-03-26T08:37:10.709Z,1.80
2023-03-26T08:39:39.952Z,1.80
2023-03-26T08:42:19.905Z,1.80
2023-03-26T08:45:08.057Z,1.90
2023-03-26T08:47:57.099Z,1.90
2023-03-26T08:50:52.136Z,1.90
2023-03-26T08:53:39.776Z,2.00
2023-03-26T08:56:21.863Z,2.00
2023-03-26T08:59:20.417Z,2.00
2023-03-26T09:01:54.535Z,2.00
2023-03-26T09:04:33.241Z,2.10
2023-03-26T09:07:24.592Z,2.10
2023-03-26T09:10:17.024Z,2.10
2023-03-26T09:13:02.111Z,2.10
2023-03-26T09:15:43.955Z,2.10
2023-03-26T09:18:16.700Z,2.10
2023-03-26T09:21:05.353Z,2.10
2023-03-26T09:23:41.424Z,2.10
2023-03-26T09:26:32.732Z,2.10
2023-03-26T09:29:18.082Z,2.10
2023-03-26T09:31:47.878Z,2.10
2023-03-26T09:34:34.667Z,2.10
2023-03-26T09:37:07.345Z,2.10
2023-03-26T09:40:17.418Z,2.10
2023-03-26T09:42:59.968Z,2.10
2023-03-26T09:45:38.125Z,2.20
2023-03-26T09:48:13.773Z,2.10
2023-03-26T09:51:17.875Z,2.10
2023-03-26T09:53:51.983Z,2.20
2023-03-26T09:56:18.844Z,2.20
2023-03-26T09:59:02.722Z,2.30
2023-03-26T10:01:47.325Z,2.30
2023-03-26T10:04:44.403Z,2.40
2023-03-26T10:07:30.200Z,2.40
2023-03-26T10:10:31.316Z,2.40
2023-03-26T10:13:19.985Z,2.40
2023-03-26T10:16:03.209Z,2.40
2023-03-26T10:19:01.924Z,2.40
2023-03-26T10:21:38.581Z,2.50
2023-03-26T10:24:41.026Z,2.50
2023-03-26T10:27:20.564Z,2.50
2023-03-26T10:30:05.946Z,2.50
2023-03-26T10:33:13.899Z,2.60
2023-03-26T10:36:05.664Z,2.60
2023-03-26T10:38:59.941Z,2.70
2023-03-26T10:41:42.660Z,2.60
2023-03-26T10:44:26.501Z,2.70
2023-03-26T10:47:56.074Z,2.70
2023-03-26T10:50:52.191Z,2.70
2023-03-26T10:53:27.401Z,2.70
2023-03-26T10:56:07.706Z,2.70
2023-03-26T10:58:48.862Z,2.70
2023-03-26T11:01:32.293Z,2.60
2023-03-26T11:04:25.444Z,2.70
2023-03-26T11:07:36.749Z,2.70
2023-03-26T11:10:07.754Z,2.70
2023-03-26T11:13:06.900Z,2.80
2023-03-26T11:15:58.819Z,2.80
2023-03-26T11:19:16.442Z,2.80
2023-03-26T11:21:57.421Z,3.50
2023-03-26T11:24:45.330Z,3.40
2023-03-26T11:27:48.077Z,3.40
2023-03-26T11:30:31.871Z,3.50
2023-03-26T11:33:03.796Z,4.30
2023-03-26T11:35:40.667Z,5.60
2023-03-26T11:38:54.460Z,4.90
2023-03-26T11:41:27.253Z,4.50
2023-03-26T11:44:24.326Z,4.20
2023-03-26T11:46:58.917Z,4.00
2023-03-26T11:49:27.087Z,3.80
2023-03-26T11:51:54.388Z,3.70
2023-03-26T11:54:22.559Z,3.70
2023-03-26T11:57:10.685Z,3.60
2023-03-26T11:59:56.629Z,3.60
2023-03-26T12:02:32.409Z,3.60
2023-03-26T12:05:13.888Z,3.60
2023-03-26T12:07:52.520Z,3.50
2023-03-26T12:10:26.603Z,3.50
2023-03-26T12:13:00.211Z,3.40
2023-03-26T12:15:28.603Z,3.50
2023-03-26T12:17:58.229Z,3.40
2023-03-26T12:20:25.402Z,3.40
2023-03-26T12:22:53.388Z,3.40
2023-03-26T12:25:26.394Z,3.40
2023-03-26T12:28:02.505Z,3.40
2023-03-26T12:30:35.755Z,3.40
2023-03-26T12:33:11.639Z,3.30
2023-03-26T12:35:38.792Z,3.20
2023-03-26T12:38:23.826Z,3.20
2023-03-26T12:42:36.585Z,3.20
2023-03-26T12:44:53.798Z,3.20
2023-03-26T12:48:00.604Z,3.20
2023-03-26T12:50:14.774Z,3.20
2023-03-26T12:53:13.624Z,3.20
2023-03-26T12:56:03.895Z,3.20
2023-03-26T12:58:58.198Z,3.20
2023-03-26T13:01:47.361Z,3.20
2023-03-26T13:05:05.642Z,3.20
2023-03-26T13:08:11.299Z,3.10
2023-03-26T13:11:16.229Z,3.10
2023-03-26T13:13:46.276Z,3.10
2023-03-26T13:16:19.395Z,3.10
2023-03-26T13:19:07.938Z,3.10
2023-03-26T13:22:16.695Z,3.10
2023-03-26T13:25:28.308Z,3.00
2023-03-26T13:28:10.948Z,3.00
2023-03-26T13:30:58.830Z,3.00
2023-03-26T13:33:40.932Z,3.00
2023-03-26T13:36:22.533Z,3.00
2023-03-26T13:39:20.372Z,2.90
2023-03-26T13:42:10.666Z,3.00
2023-03-26T13:45:05.274Z,3.00
2023-03-26T13:47:41.269Z,3.00
2023-03-26T13:50:20.390Z,2.90
2023-03-26T13:52:56.200Z,2.90
2023-03-26T13:55:42.226Z,3.00
2023-03-26T13:58:14.472Z,3.00
2023-03-26T14:01:10.058Z,3.00
2023-03-26T14:04:17.846Z,3.10
2023-03-26T14:06:48.883Z,3.10
2023-03-26T14:09:31.316Z,3.20
2023-03-26T14:11:58.262Z,3.30
2023-03-26T14:14:41.510Z,3.30
2023-03-26T14:17:39.667Z,3.30
2023-03-26T14:20:28.208Z,3.30
2023-03-26T14:23:30.519Z,3.20
2023-03-26T14:26:07.343Z,3.20
2023-03-26T14:28:43.363Z,3.00
2023-03-26T14:31:30.798Z,3.00
2023-03-26T14:34:35.189Z,3.00
2023-03-26T14:37:11.110Z,3.00
2023-03-26T14:40:08.328Z,3.00
2023-03-26T14:42:46.339Z,2.90
2023-03-26T14:45:48.881Z,2.90
2023-03-26T14:48:51.596Z,2.90
2023-03-26T14:51:41.435Z,2.80
2023-03-26T14:54:22.648Z,2.80
2023-03-26T14:56:53.580Z,2.80
2023-03-26T14:59:56.248Z,2.90
2023-03-26T15:02:51.010Z,2.90
2023-03-26T15:05:54.951Z,2.80
2023-03-26T15:08:59.712Z,2.80
2023-03-26T15:11:51.355Z,2.80
2023-03-26T15:14:27.176Z,2.80
2023-03-26T15:17:03.003Z,2.70
2023-03-26T15:19:48.509Z,2.60
2023-03-26T15:22:27.106Z,2.60
2023-03-26T15:25:21.268Z,2.60
2023-03-26T15:28:02.897Z,2.60
2023-03-26T15:30:48.564Z,2.60
2023-03-26T15:33:36.672Z,2.50
2023-03-26T15:36:28.375Z,2.40
2023-03-26T15:39:19.982Z,2.40
2023-03-26T15:41:58.156Z,2.40
2023-03-26T15:44:54.061Z,2.50
2023-03-26T15:47:42.650Z,2.50
2023-03-26T15:50:23.096Z,2.50
2023-03-26T15:53:23.608Z,2.50
2023-03-26T15:56:17.850Z,2.40
2023-03-26T15:59:23.101Z,2.30
2023-03-26T16:02:22.677Z,2.20
2023-03-26T16:04:57.513Z,2.20
2023-03-26T16:07:29.282Z,2.10
2023-03-26T16:10:16.250Z,2.10
2023-03-26T16:13:12.550Z,2.00
2023-03-26T16:15:39.990Z,2.00
2023-03-26T16:18:11.684Z,2.00
2023-03-26T16:20:53.989Z,2.00
2023-03-26T16:23:55.302Z,2.00
2023-03-26T16:26:47.921Z,2.00
2023-03-26T16:29:14.904Z,1.90
2023-03-26T16:32:09.637Z,1.90
2023-03-26T16:34:54.645Z,1.90
2023-03-26T16:37:35.597Z,1.90
2023-03-26T16:40:32.113Z,1.80
2023-03-26T16:43:18.308Z,1.80
2023-03-26T16:46:17.049Z,1.80
2023-03-26T16:49:03.825Z,1.80
2023-03-26T16:51:48.703Z,1.80
2023-03-26T16:54:54.282Z,1.80
2023-03-26T16:57:43.750Z,1.70
2023-03-26T17:00:14.593Z,1.70
2023-03-26T17:02:41.748Z,1.70
2023-03-26T17:05:21.213Z,1.60
2023-03-26T17:08:35.553Z,1.60
2023-03-26T17:11:27.904Z,1.60
2023-03-26T17:14:16.216Z,1.60
2023-03-26T17:17:01.064Z,1.60
2023-03-26T17:19:52.385Z,1.60
2023-03-26T17:22:41.186Z,1.50
2023-03-26T17:25:11.510Z,1.50
2023-03-26T17:27:50.075Z,1.50
2023-03-26T17:30:42.026Z,1.50
2023-03-26T17:33:29.492Z,1.50
2023-03-26T17:36:11.696Z,1.50
2023-03-26T17:38:45.306Z,1.50
2023-03-26T17:41:16.395Z,1.50
2023-03-26T17:43:51.235Z,1.40
2023-03-26T17:46:39.346Z,1.40
2023-03-26T17:49:12.308Z,1.40
2023-03-26T17:52:00.112Z,1.40
2023-03-26T17:54:44.297Z,1.50
2023-03-26T17:57:25.754Z,1.40
2023-03-26T17:59:57.083Z,1.40
2023-03-26T18:02:43.369Z,1.30
2023-03-26T18:05:14.546Z,1.30
2023-03-26T18:08:16.130Z,1.30
2023-03-26T18:11:08.098Z,1.30
2023-03-26T18:13:47.213Z,1.20
2023-03-26T18:16:18.242Z,1.30
2023-03-26T18:18:45.124Z,1.20
2023-03-26T18:21:21.693Z,1.20
2023-03-26T18:23:50.765Z,1.20
2023-03-26T18:26:31.616Z,1.20
2023-03-26T18:29:10.654Z,1.30
2023-03-26T18:31:42.357Z,1.30
2023-03-26T18:34:18.933Z,1.20
2023-03-26T18:36:47.392Z,1.20
2023-03-26T18:39:14.348Z,1.20
2023-03-26T18:41:42.832Z,1.20
2023-03-26T18:44:18.233Z,1.20
2023-03-26T18:46:46.025Z,1.20
2023-03-26T18:49:15.492Z,1.20
2023-03-26T18:51:56.268Z,1.20
2023-03-26T18:54:29.496Z,1.20
2023-03-26T18:56:58.958Z,1.20
2023-03-26T18:59:32.462Z,1.20
2023-03-26T19:02:04.206Z,1.10
2023-03-26T19:04:36.878Z,1.10
2023-03-26T19:07:09.978Z,1.20
2023-03-26T19:09:38.778Z,1.20
2023-03-26T19:12:08.827Z,1.10
2023-03-26T19:14:53.547Z,1.10
2023-03-26T19:17:21.219Z,1.20
2023-03-26T19:19:50.775Z,1.10
2023-03-26T19:22:19.730Z,1.10
2023-03-26T19:24:47.795Z,1.10
2023-03-26T19:27:15.157Z,1.10
2023-03-26T19:29:43.864Z,1.10
2023-03-26T19:32:18.313Z,1.00
2023-03-26T19:34:47.113Z,1.00
2023-03-26T19:37:26.959Z,1.00
2023-03-26T19:40:30.068Z,1.00
2023-03-26T19:43:03.213Z,1.00
2023-03-26T19:45:34.753Z,1.10
2023-03-26T19:48:14.306Z,1.10
2023-03-26T19:50:45.899Z,1.00
2023-03-26T19:53:24.212Z,1.00
2023-03-26T19:56:15.360Z,1.00
2023-03-26T19:58:43.094Z,1.00
2023-03-26T20:01:21.091Z,1.00
2023-03-26T20:03:52.723Z,1.00
2023-03-26T20:06:30.788Z,1.00
2023-03-26T20:09:01.921Z,1.00
2023-03-26T20:11:34.433Z,0.90
2023-03-26T20:14:01.674Z,0.90
2023-03-26T20:16:29.822Z,0.90
2023-03-26T20:19:04.588Z,0.90
2023-03-26T20:21:35.000Z,0.90
2023-03-26T20:24:02.165Z,0.90
2023-03-26T20:26:29.108Z,0.90
2023-03-26T20:28:56.154Z,0.80
2023-03-26T20:31:26.273Z,0.80
2023-03-26T20:33:54.298Z,0.80
2023-03-26T20:36:33.274Z,0.80
2023-03-26T20:39:08.496Z,0.80
2023-03-26T20:41:39.552Z,0.70
2023-03-26T20:44:13.845Z,0.70
2023-03-26T20:46:43.129Z,0.80
2023-03-26T20:49:11.359Z,0.70
2023-03-26T20:51:41.818Z,0.70
2023-03-26T20:54:18.033Z,0.60
2023-03-26T20:56:45.745Z,0.60
2023-03-26T20:59:17.752Z,0.50
2023-03-26T21:01:47.498Z,0.50
2023-03-26T21:04:16.130Z,0.50
2023-03-26T21:06:43.703Z,0.50
2023-03-26T21:09:17.702Z,0.50
2023-03-26T21:11:55.143Z,0.50
2023-03-26T21:14:33.455Z,0.50
2023-03-26T21:17:01.419Z,0.50
2023-03-26T21:19:29.189Z,0.50
2023-03-26T21:22:12.661Z,0.50
2023-03-26T21:24:44.066Z,0.50
2023-03-26T21:27:41.966Z,0.50
2023-03-26T21:30:16.371Z,0.50
2023-03-26T21:32:45.512Z,0.50
2023-03-26T21:35:14.725Z,0.40
2023-03-26T21:37:43.139Z,0.40
2023-03-26T21:40:15.017Z,0.40
2023-03-26T21:42:44.256Z,0.30
2023-03-26T21:45:12.230Z,0.30
2023-03-26T21:47:39.518Z,0.40
2023-03-26T21:50:07.868Z,0.40
2023-03-26T21:52:35.916Z,0.40
2023-03-26T21:55:05.302Z,0.40
2023-03-26T21:57:35.109Z,0.40
2023-03-26T22:00:11.577Z,0.40
2023-03-26T22:02:57.355Z,0.40
2023-03-26T22:05:40.596Z,0.30
2023-03-26T22:08:14.634Z,0.30
2023-03-26T22:10:42.733Z,0.30
2023-03-26T22:13:09.640Z,0.30
2023-03-26T22:15:38.019Z,0.30
2023-03-26T22:18:05.593Z,0.30
2023-03-26T22:20:32.795Z,0.30
2023-03-26T22:23:00.980Z,0.20
2023-03-26T22:25:27.964Z,0.20
2023-03-26T22:27:55.137Z,0.20
2023-03-26T22:30:21.997Z,0.20
2023-03-26T22:32:49.052Z,0.20
2023-03-26T22:35:16.570Z,0.20
2023-03-26T22:37:43.626Z,0.20
2023-03-26T22:40:13.492Z,0.20
2023-03-26T22:42:41.363Z,0.20
2023-03-26T22:45:11.921Z,0.10
2023-03-26T22:47:40.297Z,0.20
2023-03-26T22:50:08.535Z,0.20
2023-03-26T22:52:36.682Z,0.10
2023-03-26T22:55:04.745Z,0.10
2023-03-26T22:57:31.969Z,0.10
2023-03-26T23:00:07.729Z,0.10
2023-03-26T23:02:34.700Z,0.00
2023-03-26T23:05:01.692Z,0.00
2023-03-26T23:07:28.681Z,0.10
2023-03-26T23:09:55.663Z,0.10
2023-03-26T23:12:22.593Z,0.10
2023-03-26T23:14:52.915Z,0.00
2023-03-26T23:17:20.151Z,0.00
2023-03-26T23:19:47.067Z,0.00
2023-03-26T23:22:13.955Z,0.00
2023-03-26T23:24:40.885Z,0.10
2023-03-26T23:27:07.924Z,0.10
2023-03-26T23:29:35.567Z,0.10
2023-03-26T23:32:02.869Z,0.10
2023-03-26T23:34:29.828Z,0.00
2023-03-26T23:36:58.055Z,0.00
2023-03-26T23:39:26.655Z,0.00
2023-03-26T23:41:53.533Z,0.00
2023-03-26T23:44:20.439Z,0.00
2023-03-26T23:46:48.513Z,0.10
2023-03-26T23:49:15.454Z,0.00
2023-03-26T23:51:42.406Z,0.00
2023-03-26T23:54:09.737Z,0.00
2023-03-26T23:56:36.717Z,0.00
2023-03-26T23:59:04.869Z,0.00
